Time;durP1;ratioP1;P1;durP2;ratioP2;P2;SDS_P1;SDS_P2;PMS_P1;PMS_P2;Temp;Humidity;BMP_temperature;BMP_pressure;BME280_temperature;BME280_humidity;BME280_pressure;Samples;Min_cycle;Max_cycle;Signal;HPM_P1;HPM_P2
2021/05/01 00:01:24;;;;;;;7.87;5.17;;;8.90;99.30;;;;;;4153946;28;20238;-76
2021/05/01 00:03:25;;;;;;;8.03;5.47;;;8.80;99.30;;;;;;4159101;28;20214;-75
2021/05/01 00:05:27;;;;;;;8.20;5.13;;;8.80;99.40;;;;;;4158991;28;20972;-76
2021/05/01 00:07:28;;;;;;;9.17;5.83;;;8.80;99.40;;;;;;4159273;28;20218;-75
2021/05/01 00:09:32;;;;;;;8.80;5.67;;;8.80;99.40;;;;;;4156473;28;20215;-75
2021/05/01 00:11:34;;;;;;;8.37;5.70;;;8.80;99.40;;;;;;4160593;28;20253;-76
2021/05/01 00:13:35;;;;;;;8.10;5.67;;;8.80;99.40;;;;;;4159436;28;20785;-76
2021/05/01 00:15:37;;;;;;;8.40;5.43;;;8.80;99.50;;;;;;4168561;28;20263;-76
2021/05/01 00:17:42;;;;;;;8.07;5.20;;;8.80;99.50;;;;;;4167018;28;20652;-76
2021/05/01 00:19:44;;;;;;;7.50;5.63;;;8.80;99.60;;;;;;4159978;28;20206;-79
2021/05/01 00:21:45;;;;;;;7.60;5.23;;;8.80;99.60;;;;;;4155672;28;20239;-76
2021/05/01 00:23:47;;;;;;;78.10;31.50;;;8.80;99.60;;;;;;4154234;28;20235;-76
2021/05/01 00:25:49;;;;;;;143.27;63.63;;;8.80;99.60;;;;;;4164125;28;20588;-75
2021/05/01 00:27:50;;;;;;;133.33;60.13;;;8.80;99.60;;;;;;4164317;28;20203;-76
2021/05/01 00:29:52;;;;;;;107.77;50.83;;;8.80;99.60;;;;;;4161124;28;20215;-76
2021/05/01 00:31:54;;;;;;;85.93;42.03;;;8.80;99.60;;;;;;4164957;28;20727;-76
2021/05/01 00:33:56;;;;;;;70.27;34.73;;;8.80;99.60;;;;;;4164788;28;20202;-75
2021/05/01 00:35:57;;;;;;;55.57;29.40;;;8.80;99.60;;;;;;4164671;28;20568;-76
2021/05/01 00:37:59;;;;;;;50.33;25.23;;;8.80;99.70;;;;;;4165331;28;20469;-76
2021/05/01 00:40:00;;;;;;;40.83;21.13;;;8.80;99.70;;;;;;4164695;28;20676;-76
2021/05/01 00:42:02;;;;;;;34.23;17.83;;;8.80;99.70;;;;;;4164991;28;21044;-75
2021/05/01 00:44:04;;;;;;;27.20;14.93;;;8.80;99.70;;;;;;4164808;28;20227;-75
2021/05/01 00:46:05;;;;;;;24.10;14.03;;;8.80;99.70;;;;;;4164098;28;20215;-75
2021/05/01 00:48:07;;;;;;;20.93;12.07;;;8.70;99.70;;;;;;4163238;28;20212;-75
2021/05/01 00:50:09;;;;;;;21.73;11.23;;;8.70;99.80;;;;;;4157634;28;20467;-75
2021/05/01 00:52:11;;;;;;;17.00;10.47;;;8.70;99.80;;;;;;4163994;28;20228;-76
2021/05/01 00:54:12;;;;;;;16.57;9.57;;;8.70;99.90;;;;;;4165074;28;20210;-76
2021/05/01 00:56:13;;;;;;;14.53;8.43;;;8.70;99.90;;;;;;4164448;28;20218;-75
2021/05/01 00:58:15;;;;;;;15.10;7.83;;;8.70;99.90;;;;;;4164208;28;20215;-75
2021/05/01 01:00:35;;;;;;;12.60;7.67;;;8.70;99.90;;;;;;4164650;28;20214;-75
2021/05/01 01:02:36;;;;;;;10.93;6.90;;;8.70;99.90;;;;;;4159118;28;20237;-76
2021/05/01 01:04:38;;;;;;;9.63;6.77;;;8.80;99.90;;;;;;4164442;28;20318;-76
2021/05/01 01:06:40;;;;;;;11.03;6.80;;;8.70;99.90;;;;;;4154400;28;20273;-76
2021/05/01 01:08:41;;;;;;;10.80;6.67;;;8.70;99.90;;;;;;4156579;28;20215;-76
2021/05/01 01:10:43;;;;;;;9.50;5.87;;;8.70;99.90;;;;;;4168375;28;20226;-76
2021/05/01 01:12:44;;;;;;;8.63;6.03;;;8.70;99.90;;;;;;4172094;28;20665;-76
2021/05/01 01:14:46;;;;;;;7.70;5.33;;;8.70;99.90;;;;;;4161471;28;20203;-76
2021/05/01 01:16:47;;;;;;;7.87;5.33;;;8.70;99.90;;;;;;4165445;28;20478;-75
2021/05/01 01:18:49;;;;;;;8.97;6.13;;;8.70;99.90;;;;;;4169898;28;20476;-76
2021/05/01 01:20:50;;;;;;;9.17;5.70;;;8.70;99.90;;;;;;4162460;28;20839;-75
2021/05/01 01:22:52;;;;;;;8.43;5.67;;;8.60;99.90;;;;;;4157612;28;20211;-75
2021/05/01 01:24:54;;;;;;;8.93;5.67;;;8.60;99.90;;;;;;4164995;28;20230;-76
2021/05/01 01:26:55;;;;;;;8.93;5.47;;;8.60;99.90;;;;;;4164902;28;20213;-76
2021/05/01 01:28:56;;;;;;;8.40;5.80;;;8.60;99.90;;;;;;4165461;28;20246;-76
2021/05/01 01:30:57;;;;;;;8.33;5.60;;;8.60;99.90;;;;;;4161698;28;20539;-75
2021/05/01 01:33:00;;;;;;;7.93;5.30;;;8.60;99.90;;;;;;4164392;28;20226;-76
2021/05/01 01:35:01;;;;;;;7.80;5.57;;;8.60;99.90;;;;;;4164568;28;20203;-75
2021/05/01 01:37:02;;;;;;;8.20;5.60;;;8.60;99.90;;;;;;4159683;28;20503;-75
2021/05/01 01:39:05;;;;;;;7.83;5.40;;;8.60;99.90;;;;;;4164204;28;20214;-76
2021/05/01 01:41:06;;;;;;;8.40;5.67;;;8.50;99.90;;;;;;4163950;28;20231;-75
2021/05/01 01:43:08;;;;;;;9.23;6.00;;;8.50;99.90;;;;;;4164523;28;20211;-75
2021/05/01 01:45:11;;;;;;;8.37;5.93;;;8.50;99.90;;;;;;4163319;28;21066;-75
2021/05/01 01:47:13;;;;;;;8.23;5.63;;;8.50;99.90;;;;;;4149572;28;20212;-75
2021/05/01 01:49:14;;;;;;;8.50;5.67;;;8.50;99.90;;;;;;4153275;28;20207;-76
2021/05/01 01:51:15;;;;;;;8.03;5.87;;;8.50;99.90;;;;;;4164284;28;20239;-76
2021/05/01 01:53:16;;;;;;;8.30;5.43;;;8.50;99.90;;;;;;4165014;28;20215;-76
2021/05/01 01:55:20;;;;;;;8.03;5.47;;;8.50;99.90;;;;;;4163820;28;20947;-75
2021/05/01 01:57:21;;;;;;;8.40;5.37;;;8.40;99.90;;;;;;4162211;28;20230;-75
2021/05/01 01:59:22;;;;;;;8.20;5.70;;;8.40;99.90;;;;;;4163890;28;20699;-75
2021/05/01 02:01:24;;;;;;;8.47;5.80;;;8.40;99.90;;;;;;4163639;28;20250;-75
2021/05/01 02:03:25;;;;;;;8.87;5.67;;;8.30;99.90;;;;;;4158295;28;20590;-75
2021/05/01 02:05:26;;;;;;;8.67;6.03;;;8.30;99.90;;;;;;4163128;28;20593;-76
2021/05/01 02:07:28;;;;;;;8.67;5.57;;;8.20;99.90;;;;;;4163505;28;20473;-76
2021/05/01 02:09:29;;;;;;;6.60;5.23;;;8.20;99.90;;;;;;4162472;28;20493;-75
2021/05/01 02:11:31;;;;;;;8.50;5.40;;;8.10;99.90;;;;;;4161244;28;20322;-75
2021/05/01 02:13:32;;;;;;;6.60;5.07;;;8.10;99.90;;;;;;4162992;28;20966;-75
2021/05/01 02:15:34;;;;;;;8.30;5.40;;;8.00;99.90;;;;;;4163617;28;20466;-76
2021/05/01 02:17:35;;;;;;;7.17;5.03;;;8.00;99.90;;;;;;4163216;28;20473;-77
2021/05/01 02:19:36;;;;;;;6.37;4.77;;;7.90;99.90;;;;;;4163067;28;20449;-76
2021/05/01 02:21:37;;;;;;;8.37;4.80;;;7.90;99.90;;;;;;4163655;28;20998;-76
2021/05/01 02:23:38;;;;;;;7.47;4.97;;;7.90;99.90;;;;;;4163705;28;20219;-76
2021/05/01 02:25:40;;;;;;;8.27;5.47;;;7.90;99.90;;;;;;4162253;28;20484;-76
2021/05/01 02:27:42;;;;;;;8.03;5.40;;;7.90;99.90;;;;;;4163341;28;20269;-76
2021/05/01 02:29:43;;;;;;;7.77;5.27;;;7.90;99.90;;;;;;4163455;28;20469;-76
2021/05/01 02:31:45;;;;;;;9.07;5.40;;;7.90;99.90;;;;;;4163422;28;20523;-75
2021/05/01 02:33:46;;;;;;;8.60;5.50;;;7.90;99.90;;;;;;4160425;28;20474;-76
2021/05/01 02:35:47;;;;;;;8.33;5.40;;;7.90;99.90;;;;;;4162976;28;20465;-75
2021/05/01 02:37:49;;;;;;;9.27;6.23;;;7.90;99.90;;;;;;4163428;28;20473;-75
2021/05/01 02:39:50;;;;;;;8.43;5.93;;;7.90;99.90;;;;;;4162999;28;20508;-75
2021/05/01 02:41:52;;;;;;;9.13;5.60;;;7.90;99.90;;;;;;4162754;28;20481;-76
2021/05/01 02:43:54;;;;;;;10.43;6.20;;;7.90;99.90;;;;;;4162636;28;20516;-75
2021/05/01 02:45:55;;;;;;;9.60;5.90;;;7.90;99.90;;;;;;4163001;28;20520;-76
2021/05/01 02:47:56;;;;;;;7.60;5.40;;;7.90;99.90;;;;;;4162533;28;20469;-76
2021/05/01 02:49:57;;;;;;;9.53;6.03;;;7.90;99.90;;;;;;4163035;28;20457;-75
2021/05/01 02:51:58;;;;;;;9.57;6.07;;;7.90;99.90;;;;;;4163359;28;20485;-76
2021/05/01 02:54:00;;;;;;;7.40;5.20;;;7.90;99.90;;;;;;4163506;28;20202;-75
2021/05/01 02:56:01;;;;;;;9.43;6.30;;;7.90;99.90;;;;;;4163437;28;20466;-75
2021/05/01 02:58:02;;;;;;;8.53;6.00;;;7.90;99.90;;;;;;4164174;28;20473;-76
2021/05/01 03:00:08;;;;;;;8.67;5.90;;;7.90;99.90;;;;;;4163657;28;20578;-76
2021/05/01 03:02:09;;;;;;;8.27;6.10;;;7.90;99.90;;;;;;4164624;28;20979;-75
2021/05/01 03:04:10;;;;;;;7.73;5.77;;;7.90;99.90;;;;;;4163902;28;20261;-75
2021/05/01 03:06:11;;;;;;;9.93;6.20;;;8.00;99.90;;;;;;4159043;28;20474;-76
2021/05/01 03:08:12;;;;;;;8.50;5.83;;;7.90;99.90;;;;;;4159632;28;21254;-77
2021/05/01 03:10:16;;;;;;;10.00;6.20;;;8.00;99.90;;;;;;4167132;28;20466;-77
2021/05/01 03:12:18;;;;;;;9.93;6.10;;;8.00;99.90;;;;;;4168566;28;20485;-77
2021/05/01 03:14:19;;;;;;;8.47;5.97;;;8.00;99.90;;;;;;4167468;28;20971;-76
2021/05/01 03:16:21;;;;;;;9.10;5.80;;;8.00;99.90;;;;;;4163142;28;20523;-76
2021/05/01 03:18:22;;;;;;;10.03;6.40;;;8.00;99.90;;;;;;4160902;28;20489;-75
2021/05/01 03:20:24;;;;;;;8.97;6.50;;;8.00;99.90;;;;;;4160788;28;20835;-75
2021/05/01 03:22:25;;;;;;;9.30;6.00;;;8.00;99.90;;;;;;4162460;28;20494;-76
2021/05/01 03:24:26;;;;;;;9.10;6.47;;;8.00;99.90;;;;;;4162247;28;20655;-75
2021/05/01 03:26:27;;;;;;;9.73;6.20;;;8.00;99.90;;;;;;4162554;28;20473;-75
2021/05/01 03:28:29;;;;;;;8.80;6.00;;;8.00;99.90;;;;;;4162183;28;20480;-75
2021/05/01 03:30:30;;;;;;;10.10;6.40;;;8.00;99.90;;;;;;4162800;28;20465;-75
2021/05/01 03:32:32;;;;;;;9.80;6.57;;;8.00;99.90;;;;;;4153632;28;20465;-76
2021/05/01 03:34:33;;;;;;;9.00;6.03;;;8.00;99.90;;;;;;4148778;28;20462;-76
2021/05/01 03:36:35;;;;;;;9.00;6.17;;;8.00;99.90;;;;;;4151058;28;20469;-76
2021/05/01 03:38:36;;;;;;;11.07;6.60;;;8.00;99.90;;;;;;4168683;28;20553;-77
2021/05/01 03:40:37;;;;;;;9.60;6.00;;;7.90;99.90;;;;;;4156871;28;20482;-77
2021/05/01 03:42:39;;;;;;;9.10;6.10;;;8.00;99.90;;;;;;4150670;28;20454;-77
2021/05/01 03:44:40;;;;;;;10.37;6.70;;;8.00;99.90;;;;;;4150722;28;20582;-76
2021/05/01 03:46:41;;;;;;;10.50;6.40;;;8.00;99.90;;;;;;4160963;28;20565;-75
2021/05/01 03:48:43;;;;;;;9.63;6.03;;;8.00;99.90;;;;;;4163972;28;20465;-75
2021/05/01 03:50:44;;;;;;;10.67;6.63;;;7.90;99.90;;;;;;4163857;28;20803;-76
2021/05/01 03:52:45;;;;;;;9.13;6.43;;;7.90;99.90;;;;;;4163685;28;20519;-75
2021/05/01 03:54:46;;;;;;;10.77;6.50;;;8.00;99.90;;;;;;4163276;28;20476;-75
2021/05/01 03:56:48;;;;;;;9.73;6.90;;;8.00;99.90;;;;;;4162088;28;20474;-76
2021/05/01 03:58:50;;;;;;;10.20;6.40;;;8.00;99.90;;;;;;4162400;28;20481;-75
2021/05/01 04:00:51;;;;;;;10.70;7.00;;;8.00;99.90;;;;;;4157587;28;22811;-75
2021/05/01 04:02:53;;;;;;;9.83;6.53;;;8.00;99.90;;;;;;4157497;28;20469;-76
2021/05/01 04:04:55;;;;;;;8.73;5.87;;;8.00;99.90;;;;;;4162856;28;20563;-76
2021/05/01 04:06:56;;;;;;;10.47;6.77;;;8.00;99.90;;;;;;4157900;28;20541;-76
2021/05/01 04:08:58;;;;;;;9.83;6.33;;;8.00;99.90;;;;;;4162692;28;20466;-75
2021/05/01 04:10:59;;;;;;;9.33;5.83;;;8.00;99.90;;;;;;4159718;28;20555;-75
2021/05/01 04:13:01;;;;;;;10.57;6.40;;;8.00;99.90;;;;;;4162024;28;20835;-75
2021/05/01 04:15:02;;;;;;;9.17;6.33;;;8.00;99.90;;;;;;4161899;28;20462;-75
2021/05/01 04:17:03;;;;;;;9.10;6.13;;;8.00;99.90;;;;;;4162496;28;20465;-77
2021/05/01 04:19:05;;;;;;;9.73;6.63;;;8.00;99.90;;;;;;4157090;28;20480;-75
2021/05/01 04:21:07;;;;;;;8.93;6.23;;;8.00;99.90;;;;;;4161889;28;20490;-75
2021/05/01 04:23:09;;;;;;;9.37;6.50;;;8.00;99.90;;;;;;4161833;28;20473;-75
2021/05/01 04:25:11;;;;;;;9.60;6.17;;;8.10;99.90;;;;;;4162180;28;21008;-75
2021/05/01 04:27:12;;;;;;;11.83;6.83;;;8.10;99.90;;;;;;4163726;28;20462;-75
2021/05/01 04:29:14;;;;;;;9.73;6.90;;;8.10;99.90;;;;;;4162840;28;20460;-76
2021/05/01 04:31:15;;;;;;;10.00;6.43;;;8.10;99.90;;;;;;4161415;28;20489;-76
2021/05/01 04:33:16;;;;;;;8.90;6.30;;;8.10;99.90;;;;;;4163770;28;20216;-76
2021/05/01 04:35:17;;;;;;;10.97;6.73;;;8.10;99.90;;;;;;4164185;28;20215;-75
2021/05/01 04:37:19;;;;;;;11.00;6.87;;;8.10;99.90;;;;;;4152397;28;20212;-75
2021/05/01 04:39:21;;;;;;;9.77;6.67;;;8.20;99.90;;;;;;4156622;28;20466;-76
2021/05/01 04:41:22;;;;;;;9.53;6.60;;;8.20;99.90;;;;;;4162327;28;20231;-76
2021/05/01 04:43:25;;;;;;;9.07;6.40;;;8.20;99.90;;;;;;4162290;28;20693;-75
2021/05/01 04:45:26;;;;;;;11.10;7.40;;;8.20;99.90;;;;;;4161666;28;20497;-75
2021/05/01 04:47:28;;;;;;;9.30;6.13;;;8.20;99.90;;;;;;4161831;28;20477;-76
2021/05/01 04:49:29;;;;;;;10.27;7.00;;;8.30;99.90;;;;;;4162234;28;20215;-75
2021/05/01 04:51:32;;;;;;;9.63;6.57;;;8.30;99.90;;;;;;4161590;28;20474;-75
2021/05/01 04:53:34;;;;;;;11.70;7.43;;;8.30;99.90;;;;;;4162671;28;20217;-76
2021/05/01 04:55:35;;;;;;;11.90;7.23;;;8.40;99.90;;;;;;4164378;28;20464;-76
2021/05/01 04:57:37;;;;;;;9.20;6.20;;;8.40;99.90;;;;;;4162646;28;20246;-76
2021/05/01 04:59:38;;;;;;;11.27;7.30;;;8.40;99.90;;;;;;4165100;28;20990;-75
2021/05/01 05:01:39;;;;;;;10.57;7.10;;;8.40;99.90;;;;;;4164448;28;20293;-76
2021/05/01 05:03:40;;;;;;;9.67;6.37;;;8.50;99.90;;;;;;4164842;28;20477;-76
2021/05/01 05:05:41;;;;;;;10.60;7.20;;;8.50;99.90;;;;;;4164462;28;20227;-76
2021/05/01 05:07:43;;;;;;;10.43;7.00;;;8.50;99.90;;;;;;4165256;28;20653;-76
2021/05/01 05:09:45;;;;;;;12.27;7.53;;;8.60;99.90;;;;;;4164592;28;20199;-76
2021/05/01 05:11:46;;;;;;;9.83;6.63;;;8.60;99.90;;;;;;4164299;28;21036;-76
2021/05/01 05:13:48;;;;;;;11.33;6.83;;;8.60;99.90;;;;;;4165032;28;20222;-76
2021/05/01 05:15:49;;;;;;;11.07;7.10;;;8.70;99.90;;;;;;4162512;28;20222;-76
2021/05/01 05:17:50;;;;;;;9.40;6.37;;;8.70;99.90;;;;;;4160617;28;20219;-78
2021/05/01 05:19:51;;;;;;;10.03;6.93;;;8.70;99.90;;;;;;4165495;28;20576;-76
2021/05/01 05:21:52;;;;;;;9.27;6.57;;;8.70;99.90;;;;;;4164917;28;20253;-76
2021/05/01 05:23:53;;;;;;;10.30;7.23;;;8.80;99.90;;;;;;4165146;28;20234;-76
2021/05/01 05:25:56;;;;;;;12.63;7.53;;;8.80;99.90;;;;;;4165887;28;20280;-76
2021/05/01 05:27:57;;;;;;;12.17;7.53;;;8.90;99.90;;;;;;4166026;28;20206;-76
2021/05/01 05:29:58;;;;;;;10.60;6.77;;;8.90;99.90;;;;;;4168620;28;20215;-77
2021/05/01 05:32:00;;;;;;;10.17;7.27;;;9.00;99.90;;;;;;4157687;28;20232;-77
2021/05/01 05:34:01;;;;;;;10.70;6.90;;;9.00;99.90;;;;;;4154435;28;20208;-77
2021/05/01 05:36:02;;;;;;;11.37;6.93;;;9.10;99.90;;;;;;4153065;28;20357;-77
2021/05/01 05:38:04;;;;;;;12.90;7.33;;;9.10;99.90;;;;;;4150435;28;20212;-76
2021/05/01 05:40:06;;;;;;;10.40;7.03;;;9.20;99.90;;;;;;4164569;28;20220;-76
2021/05/01 05:42:10;;;;;;;12.27;7.37;;;9.30;99.90;;;;;;4159719;28;20234;-76
2021/05/01 05:44:11;;;;;;;11.67;7.67;;;9.30;99.90;;;;;;4164240;28;20211;-76
2021/05/01 05:46:14;;;;;;;10.73;7.10;;;9.40;99.90;;;;;;4164287;28;20214;-77
2021/05/01 05:48:15;;;;;;;10.83;7.50;;;9.40;99.90;;;;;;4163959;28;20207;-77
2021/05/01 05:50:17;;;;;;;10.30;6.93;;;9.50;99.90;;;;;;4164713;28;20229;-76
2021/05/01 05:52:18;;;;;;;12.20;7.83;;;9.50;99.80;;;;;;4164067;28;20673;-76
2021/05/01 05:54:19;;;;;;;11.97;7.63;;;9.60;99.70;;;;;;4157908;28;20212;-77
2021/05/01 05:56:20;;;;;;;11.13;7.33;;;9.70;99.60;;;;;;4147754;28;20208;-76
2021/05/01 05:58:23;;;;;;;12.27;8.00;;;9.70;99.40;;;;;;4149527;28;20209;-76
2021/05/01 06:00:26;;;;;;;13.77;8.57;;;9.80;99.30;;;;;;4163251;28;20216;-75
2021/05/01 06:02:28;;;;;;;13.33;8.97;;;9.90;99.40;;;;;;4162885;28;20231;-76
2021/05/01 06:04:31;;;;;;;12.13;8.43;;;10.00;98.90;;;;;;4160624;28;20774;-76
2021/05/01 06:06:34;;;;;;;12.17;8.20;;;10.00;98.70;;;;;;4163700;28;20240;-76
2021/05/01 06:08:37;;;;;;;12.33;8.17;;;10.10;98.60;;;;;;4147835;28;20219;-76
2021/05/01 06:10:39;;;;;;;11.33;7.97;;;10.20;98.30;;;;;;4153474;28;20225;-76
2021/05/01 06:12:42;;;;;;;10.73;7.17;;;10.30;98.10;;;;;;4164688;28;21133;-75
2021/05/01 06:14:46;;;;;;;13.30;7.97;;;10.30;97.90;;;;;;4158588;28;20216;-75
2021/05/01 06:16:47;;;;;;;12.03;8.10;;;10.40;97.70;;;;;;4160390;28;20212;-75
2021/05/01 06:18:51;;;;;;;10.47;7.40;;;10.50;97.50;;;;;;4162302;28;20258;-76
2021/05/01 06:20:52;;;;;;;10.90;7.70;;;10.60;97.40;;;;;;4162948;28;20240;-75
2021/05/01 06:22:54;;;;;;;11.33;8.20;;;10.70;97.20;;;;;;4164104;28;20218;-76
2021/05/01 06:24:55;;;;;;;9.80;6.87;;;10.80;97.00;;;;;;4163486;28;20233;-76
2021/05/01 06:26:57;;;;;;;11.80;7.80;;;10.90;96.90;;;;;;4164536;28;20261;-77
2021/05/01 06:28:58;;;;;;;11.50;8.07;;;11.00;96.60;;;;;;4159748;28;20211;-76
2021/05/01 06:31:02;;;;;;;11.67;7.73;;;11.00;96.40;;;;;;4164192;28;20235;-75
2021/05/01 06:33:04;;;;;;;10.53;8.00;;;11.10;96.30;;;;;;4166872;28;20231;-77
2021/05/01 06:35:07;;;;;;;11.23;7.83;;;11.10;96.10;;;;;;4169817;28;20205;-76
2021/05/01 06:37:08;;;;;;;11.50;8.43;;;11.20;95.90;;;;;;4164562;28;20582;-77
2021/05/01 06:39:12;;;;;;;12.03;8.53;;;11.30;95.80;;;;;;4166771;28;20749;-77
2021/05/01 06:41:15;;;;;;;11.10;8.13;;;11.30;95.40;;;;;;4159271;28;20316;-76
2021/05/01 06:43:35;;;;;;;12.73;8.73;;;11.30;95.30;;;;;;4155202;28;20285;-77
2021/05/01 06:45:40;;;;;;;12.47;8.17;;;11.40;95.20;;;;;;4158579;28;20305;-77
2021/05/01 06:47:53;;;;;;;11.40;8.10;;;11.40;95.00;;;;;;4162520;28;20639;-77
2021/05/01 06:50:03;;;;;;;13.47;8.53;;;11.50;94.80;;;;;;4156879;28;20218;-78
2021/05/01 06:52:06;;;;;;;12.60;8.67;;;11.50;94.60;;;;;;4163419;28;20258;-77
2021/05/01 06:54:11;;;;;;;11.67;8.50;;;11.50;94.40;;;;;;4162268;28;20210;-77
2021/05/01 06:56:14;;;;;;;13.37;8.70;;;11.60;94.30;;;;;;4162087;28;20247;-77
2021/05/01 06:58:15;;;;;;;12.73;8.53;;;11.60;94.30;;;;;;4163222;28;20672;-76
2021/05/01 07:00:18;;;;;;;11.93;8.30;;;11.70;94.00;;;;;;4162447;28;20217;-76
2021/05/01 07:02:24;;;;;;;13.80;9.30;;;11.80;93.80;;;;;;4158595;28;20231;-77
2021/05/01 07:04:26;;;;;;;11.23;8.37;;;11.80;93.60;;;;;;4158313;28;20623;-77
2021/05/01 07:06:28;;;;;;;12.87;8.90;;;11.90;93.50;;;;;;4162551;28;20211;-77
2021/05/01 07:08:29;;;;;;;15.13;8.97;;;12.00;93.30;;;;;;4157622;28;20211;-77
2021/05/01 07:10:31;;;;;;;12.57;8.47;;;12.10;93.10;;;;;;4162660;28;20233;-77
2021/05/01 07:12:32;;;;;;;13.90;9.03;;;12.10;92.90;;;;;;4162521;28;20239;-76
2021/05/01 07:14:35;;;;;;;12.90;8.67;;;12.20;92.60;;;;;;4157490;28;20205;-77
2021/05/01 07:16:37;;;;;;;12.67;9.20;;;12.20;92.50;;;;;;4160661;28;20207;-77
2021/05/01 07:18:39;;;;;;;13.23;8.53;;;12.30;92.20;;;;;;4161878;28;20306;-77
2021/05/01 07:20:41;;;;;;;11.93;8.67;;;12.20;92.10;;;;;;4162392;28;20211;-77
2021/05/01 07:22:42;;;;;;;13.83;9.40;;;12.20;92.00;;;;;;4163171;28;20233;-77
2021/05/01 07:24:43;;;;;;;12.83;9.30;;;12.20;91.90;;;;;;4163004;28;20227;-78
2021/05/01 07:26:46;;;;;;;13.30;9.07;;;12.10;91.60;;;;;;4158931;28;20253;-77
2021/05/01 07:28:50;;;;;;;13.87;9.47;;;12.00;91.70;;;;;;4163269;28;20214;-76
2021/05/01 07:30:55;;;;;;;13.87;9.30;;;11.90;91.80;;;;;;4163590;28;20594;-78
2021/05/01 07:33:00;;;;;;;12.10;8.17;;;11.80;91.90;;;;;;4159590;28;20207;-77
2021/05/01 07:35:04;;;;;;;11.73;8.17;;;11.80;92.10;;;;;;4162436;28;20198;-76
2021/05/01 07:37:11;;;;;;;11.60;8.17;;;11.80;92.10;;;;;;4162389;28;20304;-76
2021/05/01 07:39:15;;;;;;;12.63;8.23;;;11.80;92.50;;;;;;4156589;28;20206;-77
2021/05/01 07:41:17;;;;;;;13.17;8.70;;;11.80;92.20;;;;;;4162715;28;20234;-78
2021/05/01 07:43:20;;;;;;;11.77;7.90;;;11.70;92.10;;;;;;4156662;28;20288;-78
2021/05/01 07:45:24;;;;;;;11.43;8.33;;;11.70;91.90;;;;;;4155517;28;20282;-77
2021/05/01 07:47:28;;;;;;;12.20;8.33;;;11.70;91.90;;;;;;4162191;28;20233;-77
2021/05/01 07:49:30;;;;;;;10.73;7.60;;;11.80;92.00;;;;;;4161506;28;20218;-77
2021/05/01 07:51:34;;;;;;;11.03;7.83;;;11.80;91.90;;;;;;4165250;28;20226;-76
2021/05/01 07:53:36;;;;;;;11.93;8.03;;;11.80;91.60;;;;;;4164575;28;20210;-77
2021/05/01 07:55:38;;;;;;;9.77;7.17;;;11.90;91.30;;;;;;4166566;28;20197;-77
2021/05/01 07:57:39;;;;;;;11.20;7.90;;;11.90;91.10;;;;;;4162662;28;20296;-76
2021/05/01 07:59:40;;;;;;;11.93;7.53;;;11.90;90.80;;;;;;4161995;28;20216;-76
2021/05/01 08:01:42;;;;;;;10.93;7.87;;;11.90;90.80;;;;;;4162846;28;20234;-76
2021/05/01 08:03:44;;;;;;;10.07;7.23;;;12.00;90.70;;;;;;4162399;28;20209;-75
2021/05/01 08:05:45;;;;;;;11.60;7.50;;;12.00;90.60;;;;;;4162276;28;20226;-76
2021/05/01 08:07:47;;;;;;;12.27;7.50;;;12.10;90.60;;;;;;4162796;28;20211;-75
2021/05/01 08:09:49;;;;;;;10.03;7.00;;;12.30;90.50;;;;;;4162554;28;20290;-75
2021/05/01 08:11:50;;;;;;;10.10;6.53;;;12.40;90.30;;;;;;4161664;28;20222;-75
2021/05/01 08:13:52;;;;;;;11.13;7.27;;;12.50;90.00;;;;;;4160498;28;22594;-76
2021/05/01 08:15:53;;;;;;;9.50;7.20;;;12.70;89.20;;;;;;4162129;28;20198;-76
2021/05/01 08:17:54;;;;;;;11.20;7.27;;;12.70;88.70;;;;;;4160951;28;20262;-76
2021/05/01 08:19:56;;;;;;;12.70;7.70;;;12.80;87.80;;;;;;4159505;28;20214;-76
2021/05/01 08:21:57;;;;;;;11.60;8.07;;;12.90;87.30;;;;;;4162116;28;20222;-77
2021/05/01 08:23:59;;;;;;;11.50;8.07;;;13.00;86.50;;;;;;4161921;28;20221;-76
2021/05/01 08:26:03;;;;;;;10.53;8.03;;;13.10;85.90;;;;;;4161510;28;20317;-76
2021/05/01 08:28:04;;;;;;;10.97;7.40;;;13.20;85.30;;;;;;4158503;28;20215;-76
2021/05/01 08:30:11;;;;;;;11.47;7.97;;;13.30;85.00;;;;;;4159340;28;20204;-76
2021/05/01 08:32:14;;;;;;;9.30;7.07;;;13.60;84.50;;;;;;4157390;28;20605;-76
2021/05/01 08:34:15;;;;;;;10.47;7.20;;;13.70;83.00;;;;;;4164939;28;20218;-76
2021/05/01 08:36:17;;;;;;;8.80;6.90;;;13.90;81.90;;;;;;4162758;28;20239;-76
2021/05/01 08:38:20;;;;;;;10.47;7.47;;;14.00;80.80;;;;;;4156332;28;20292;-76
2021/05/01 08:40:21;;;;;;;10.37;7.80;;;14.00;79.30;;;;;;4163012;28;20278;-76
2021/05/01 08:42:24;;;;;;;9.67;6.90;;;14.20;78.80;;;;;;4163703;28;20231;-76
2021/05/01 08:44:25;;;;;;;9.97;7.00;;;14.20;77.40;;;;;;4165419;28;20201;-76
2021/05/01 08:46:26;;;;;;;9.63;7.27;;;14.20;77.30;;;;;;4162377;28;20226;-77
2021/05/01 08:48:28;;;;;;;10.03;7.37;;;14.30;76.60;;;;;;4163247;28;20219;-77
2021/05/01 08:50:43;;;;;;;9.97;7.13;;;14.30;76.30;;;;;;4164992;28;20596;-77
2021/05/01 08:52:44;;;;;;;9.87;7.40;;;14.40;75.80;;;;;;4160334;28;20270;-77
2021/05/01 08:54:46;;;;;;;8.57;6.33;;;14.40;75.60;;;;;;4164737;28;20292;-77
2021/05/01 08:56:47;;;;;;;8.83;6.77;;;14.40;75.50;;;;;;4165716;28;20201;-76
2021/05/01 08:58:52;;;;;;;9.70;7.30;;;14.60;74.80;;;;;;4165670;28;20635;-76
2021/05/01 09:00:53;;;;;;;10.30;7.00;;;14.60;73.40;;;;;;4163344;28;20230;-76
2021/05/01 09:02:56;;;;;;;10.03;7.40;;;14.80;72.60;;;;;;4162005;28;20212;-77
2021/05/01 09:04:58;;;;;;;9.97;6.90;;;14.80;72.40;;;;;;4165145;28;20248;-77
2021/05/01 09:07:01;;;;;;;9.10;7.10;;;15.00;71.60;;;;;;4165643;28;20278;-76
2021/05/01 09:09:05;;;;;;;10.37;7.33;;;15.10;70.70;;;;;;4166848;28;20210;-77
2021/05/01 09:11:08;;;;;;;10.13;7.30;;;15.20;70.00;;;;;;4166553;28;20241;-78
2021/05/01 09:13:17;;;;;;;9.77;6.80;;;15.20;68.70;;;;;;4166805;28;20691;-77
2021/05/01 09:15:21;;;;;;;11.77;6.93;;;15.30;68.40;;;;;;4168035;28;20629;-78
2021/05/01 09:17:23;;;;;;;10.20;7.03;;;15.40;68.30;;;;;;4165932;28;20214;-79
2021/05/01 09:19:35;;;;;;;9.60;6.60;;;15.40;68.60;;;;;;4164539;28;20210;-78
2021/05/01 09:21:36;;;;;;;7.90;6.17;;;15.60;68.90;;;;;;4160827;28;20225;-79
2021/05/01 09:23:37;;;;;;;9.10;6.50;;;15.70;67.70;;;;;;4160389;28;20210;-79
2021/05/01 09:25:48;;;;;;;16.40;11.27;;;15.90;66.80;;;;;;4161977;28;20219;-77
2021/05/01 09:28:14;;;;;;;43.50;25.67;;;16.00;66.00;;;;;;4161948;28;20555;-75
2021/05/01 09:30:16;;;;;;;24.63;16.30;;;16.10;63.90;;;;;;4151455;28;20213;-78
2021/05/01 09:32:23;;;;;;;16.90;10.90;;;16.30;63.40;;;;;;4161987;28;20577;-74
2021/05/01 09:34:39;;;;;;;15.07;9.63;;;16.50;61.10;;;;;;4162081;28;20711;-75
2021/05/01 09:36:41;;;;;;;9.67;7.10;;;16.70;59.50;;;;;;4161669;28;20206;-76
2021/05/01 09:38:44;;;;;;;8.87;6.70;;;16.80;56.70;;;;;;4160010;28;20222;-76
2021/05/01 09:40:46;;;;;;;8.80;6.53;;;16.90;55.70;;;;;;4156313;28;20214;-78
2021/05/01 09:42:48;;;;;;;7.30;5.80;;;17.00;54.90;;;;;;4157066;28;20571;-74
2021/05/01 09:45:06;;;;;;;7.70;5.80;;;17.10;54.20;;;;;;4161579;28;20238;-75
2021/05/01 09:47:12;;;;;;;8.27;6.20;;;17.10;54.10;;;;;;4153349;28;20216;-75
2021/05/01 09:49:16;;;;;;;7.63;6.00;;;17.10;52.90;;;;;;4155687;28;20212;-75
2021/05/01 09:51:17;;;;;;;6.93;5.80;;;17.20;53.20;;;;;;4162211;28;20233;-76
2021/05/01 09:53:21;;;;;;;8.97;6.00;;;17.20;52.50;;;;;;4161487;28;20224;-76
2021/05/01 09:55:40;;;;;;;7.83;5.80;;;17.20;51.70;;;;;;4157728;28;20257;-75
2021/05/01 09:57:42;;;;;;;7.27;5.43;;;17.20;51.60;;;;;;4157003;28;20211;-77
2021/05/01 09:59:45;;;;;;;7.43;5.90;;;17.30;51.90;;;;;;4152258;28;20584;-74
2021/05/01 10:01:56;;;;;;;7.90;5.93;;;17.40;51.20;;;;;;4150822;28;20604;-76
2021/05/01 10:04:14;;;;;;;6.30;5.30;;;17.50;50.50;;;;;;4149272;28;20238;-78
2021/05/01 10:06:19;;;;;;;7.10;5.30;;;17.70;49.90;;;;;;4152077;28;20566;-73
2021/05/01 10:08:22;;;;;;;6.60;5.27;;;17.80;49.40;;;;;;4163251;28;20235;-75
2021/05/01 10:10:39;;;;;;;7.57;5.70;;;17.90;49.60;;;;;;4155859;28;20207;-76
2021/05/01 10:12:41;;;;;;;7.30;5.63;;;18.10;49.90;;;;;;4155397;28;20639;-72
2021/05/01 10:14:45;;;;;;;8.37;6.10;;;18.20;49.60;;;;;;4155754;28;20276;-73
2021/05/01 10:16:54;;;;;;;5.97;5.03;;;18.30;49.20;;;;;;4158868;28;20581;-72
2021/05/01 10:19:09;;;;;;;7.50;5.77;;;18.40;49.10;;;;;;4154802;28;20301;-74
2021/05/01 10:21:26;;;;;;;7.30;5.30;;;18.50;48.70;;;;;;4154760;28;20658;-73
2021/05/01 10:23:27;;;;;;;7.50;5.70;;;18.60;48.60;;;;;;4152385;28;20297;-76
2021/05/01 10:25:29;;;;;;;6.03;5.43;;;18.60;48.60;;;;;;4152102;28;20224;-74
2021/05/01 10:27:41;;;;;;;10.33;5.70;;;18.60;48.60;;;;;;4154827;28;20292;-73
2021/05/01 10:29:44;;;;;;;7.13;5.47;;;18.70;48.50;;;;;;4154418;28;20280;-74
2021/05/01 10:31:46;;;;;;;7.93;5.77;;;18.70;47.90;;;;;;4157477;28;20237;-75
2021/05/01 10:33:50;;;;;;;7.37;5.50;;;18.80;47.40;;;;;;4154477;28;20683;-74
2021/05/01 10:36:04;;;;;;;9.60;5.97;;;18.80;47.00;;;;;;4164027;28;20659;-74
2021/05/01 10:38:09;;;;;;;12.20;7.20;;;18.70;47.60;;;;;;4161449;28;20277;-74
2021/05/01 10:40:12;;;;;;;13.63;7.67;;;18.70;47.90;;;;;;4160609;28;20924;-72